MEDX · Horizon Kinetics Medical ETF ETF
$36.69
-0.39 (-1.06%)
At close · Sep 4
Weekly off-exchange (dark pool / OTC) trading volume reported to FINRA under its OTC/ATS Transparency data. ATS volume is executed on alternating trading systems (dark pools); non-ATS OTC is other over-the-counter dealer volume. The off-exchange share is total off-exchange volume as a percentage of consolidated weekly trading volume for the same Monday–Friday week.
Off-Exchange Volume History
| Week Start | ATS Volume | Non-ATS OTC Volume | Total Off-Exchange | % of FINRA Weekly Volume |
|---|---|---|---|---|
| 2026-07-27 | 2,800 | 2,772 | 5,572 | 24.4% |
| 2026-07-20 | 0 | 1,066 | 1,066 | 17.8% |
| 2026-07-13 | 7,201 | 5,531 | 12,732 | 34.0% |
| 2026-07-06 | 399 | 5,017 | 5,416 | 45.9% |
| 2026-06-29 | 7 | 1,255 | 1,262 | 60.1% |
| 2026-06-22 | 924 | 8,401 | 9,325 | 70.6% |
| 2026-06-15 | 0 | 1,561 | 1,561 | 67.9% |
| 2026-06-08 | 1,025 | 7,771 | 8,796 | 59.0% |
| 2026-06-01 | 300 | 1,692 | 1,992 | 42.4% |
| 2026-05-25 | 239 | 2,250 | 2,489 | 42.2% |
| 2026-05-18 | 100 | 5,321 | 5,421 | 88.9% |
| 2026-05-11 | 250 | 1,886 | 2,136 | 59.3% |
| 2026-05-04 | 110 | 2,788 | 2,898 | 80.5% |
| 2026-04-27 | 201 | 2,849 | 3,050 | 56.5% |
| 2026-04-20 | 6 | 1,127 | 1,133 | 42.0% |
| 2026-04-13 | 500 | 2,777 | 3,277 | 61.8% |
| 2026-04-06 | 616 | 4,652 | 5,268 | 47.5% |
| 2026-03-30 | 1,824 | 5,794 | 7,618 | 49.1% |
| 2026-03-23 | 124 | 1,926 | 2,050 | 66.1% |
| 2026-03-16 | 0 | 8,402 | 8,402 | 48.8% |
| 2026-03-09 | 2,239 | 8,687 | 10,926 | 60.0% |
| 2026-03-02 | 104 | 9,972 | 10,076 | 39.8% |
| 2026-02-23 | 212 | 2,133 | 2,345 | 35.5% |
| 2026-02-16 | 112 | 2,429 | 2,541 | 39.7% |
| 2026-02-09 | 306 | 4,086 | 4,392 | 69.7% |
| 2026-02-02 | 0 | 4,591 | 4,591 | 55.3% |
| 2026-01-26 | 212 | 14,402 | 14,614 | 89.1% |
| 2026-01-19 | 2,802 | 8,415 | 11,217 | 49.4% |
| 2026-01-12 | 555 | 1,837 | 2,392 | 61.3% |
| 2026-01-05 | 0 | 2,412 | 2,412 | 57.4% |
| 2025-12-29 | 500 | 1,301 | 1,801 | 53.0% |
| 2025-12-22 | 96 | 2,400 | 2,496 | 58.0% |
| 2025-12-15 | 814 | 1,960 | 2,774 | 64.5% |
| 2025-12-08 | 0 | 670 | 670 | 33.5% |
| 2025-12-01 | 0 | 3,404 | 3,404 | 66.7% |
| 2025-11-24 | 0 | 318 | 318 | 53.0% |
| 2025-11-17 | 321 | 5,330 | 5,651 | 66.5% |
| 2025-11-10 | 281 | 1,544 | 1,825 | 65.2% |
| 2025-11-03 | 169 | 646 | 815 | 62.7% |
| 2025-10-27 | 13 | 1,758 | 1,771 | 52.1% |
| 2025-10-20 | 820 | 646 | 1,466 | 56.4% |
| 2025-10-13 | 1,338 | 3,325 | 4,663 | 74.0% |
| 2025-10-06 | 154 | 2,690 | 2,844 | 67.7% |
| 2025-09-29 | 485 | 3,659 | 4,144 | 22.6% |
| 2025-09-22 | 67 | 676 | 743 | 61.9% |
| 2025-09-15 | 0 | 1,086 | 1,086 | 47.2% |
| 2025-09-08 | 599 | 1,965 | 2,564 | 31.3% |
Showing 1–47 of 47 weeks